sensor_id;sensor_type;location;lat;lon;timestamp;P1;durP1;ratioP1;P2;durP2;ratioP2
30515;SDS011;17297;54.022;10.760;2024-03-08T00:01:52;11.93;;;6.78;;
30515;SDS011;17297;54.022;10.760;2024-03-08T00:04:18;13.45;;;7.60;;
30515;SDS011;17297;54.022;10.760;2024-03-08T00:06:43;14.70;;;7.47;;
30515;SDS011;17297;54.022;10.760;2024-03-08T00:09:11;11.02;;;7.90;;
30515;SDS011;17297;54.022;10.760;2024-03-08T00:11:39;11.80;;;7.15;;
30515;SDS011;17297;54.022;10.760;2024-03-08T00:14:04;10.57;;;6.70;;
30515;SDS011;17297;54.022;10.760;2024-03-08T00:16:32;14.13;;;7.68;;
30515;SDS011;17297;54.022;10.760;2024-03-08T00:18:58;14.00;;;8.10;;
30515;SDS011;17297;54.022;10.760;2024-03-08T00:21:23;11.32;;;7.93;;
30515;SDS011;17297;54.022;10.760;2024-03-08T00:23:49;15.90;;;8.35;;
30515;SDS011;17297;54.022;10.760;2024-03-08T00:26:14;12.90;;;7.45;;
30515;SDS011;17297;54.022;10.760;2024-03-08T00:28:40;14.65;;;7.57;;
30515;SDS011;17297;54.022;10.760;2024-03-08T00:31:05;15.82;;;6.80;;
30515;SDS011;17297;54.022;10.760;2024-03-08T00:33:32;14.05;;;7.53;;
30515;SDS011;17297;54.022;10.760;2024-03-08T00:35:57;11.25;;;7.60;;
30515;SDS011;17297;54.022;10.760;2024-03-08T00:38:23;11.52;;;8.02;;
30515;SDS011;17297;54.022;10.760;2024-03-08T00:40:48;16.88;;;7.63;;
30515;SDS011;17297;54.022;10.760;2024-03-08T00:43:13;12.95;;;8.18;;
30515;SDS011;17297;54.022;10.760;2024-03-08T00:45:40;18.08;;;8.98;;
30515;SDS011;17297;54.022;10.760;2024-03-08T00:48:07;17.05;;;8.73;;
30515;SDS011;17297;54.022;10.760;2024-03-08T00:50:33;14.43;;;7.75;;
30515;SDS011;17297;54.022;10.760;2024-03-08T00:52:59;13.48;;;8.38;;
30515;SDS011;17297;54.022;10.760;2024-03-08T00:55:25;12.30;;;7.63;;
30515;SDS011;17297;54.022;10.760;2024-03-08T00:57:50;12.77;;;7.82;;
30515;SDS011;17297;54.022;10.760;2024-03-08T01:00:15;15.55;;;8.50;;
30515;SDS011;17297;54.022;10.760;2024-03-08T01:02:42;17.30;;;8.50;;
30515;SDS011;17297;54.022;10.760;2024-03-08T01:05:07;13.15;;;8.80;;
30515;SDS011;17297;54.022;10.760;2024-03-08T01:07:34;16.48;;;9.35;;
30515;SDS011;17297;54.022;10.760;2024-03-08T01:10:00;12.50;;;8.23;;
30515;SDS011;17297;54.022;10.760;2024-03-08T01:12:27;14.23;;;8.57;;
30515;SDS011;17297;54.022;10.760;2024-03-08T01:14:54;19.90;;;11.02;;
30515;SDS011;17297;54.022;10.760;2024-03-08T01:17:19;15.35;;;9.25;;
30515;SDS011;17297;54.022;10.760;2024-03-08T01:19:45;16.02;;;7.75;;
30515;SDS011;17297;54.022;10.760;2024-03-08T01:22:10;14.38;;;8.40;;
30515;SDS011;17297;54.022;10.760;2024-03-08T01:24:36;16.17;;;8.77;;
30515;SDS011;17297;54.022;10.760;2024-03-08T01:27:02;15.63;;;7.50;;
30515;SDS011;17297;54.022;10.760;2024-03-08T01:29:28;13.18;;;7.82;;
30515;SDS011;17297;54.022;10.760;2024-03-08T01:31:54;14.23;;;7.82;;
30515;SDS011;17297;54.022;10.760;2024-03-08T01:34:20;15.82;;;8.77;;
30515;SDS011;17297;54.022;10.760;2024-03-08T01:36:48;15.52;;;7.82;;
30515;SDS011;17297;54.022;10.760;2024-03-08T01:39:14;11.57;;;7.20;;
30515;SDS011;17297;54.022;10.760;2024-03-08T01:41:39;13.82;;;8.20;;
30515;SDS011;17297;54.022;10.760;2024-03-08T01:44:05;18.45;;;8.07;;
30515;SDS011;17297;54.022;10.760;2024-03-08T01:46:32;13.38;;;7.63;;
30515;SDS011;17297;54.022;10.760;2024-03-08T01:48:59;12.50;;;8.43;;
30515;SDS011;17297;54.022;10.760;2024-03-08T01:51:25;16.50;;;7.90;;
30515;SDS011;17297;54.022;10.760;2024-03-08T01:53:53;13.18;;;7.78;;
30515;SDS011;17297;54.022;10.760;2024-03-08T01:56:24;16.42;;;7.50;;
30515;SDS011;17297;54.022;10.760;2024-03-08T01:58:50;17.48;;;7.80;;
30515;SDS011;17297;54.022;10.760;2024-03-08T02:01:16;15.02;;;7.45;;
30515;SDS011;17297;54.022;10.760;2024-03-08T02:03:41;15.90;;;7.88;;
30515;SDS011;17297;54.022;10.760;2024-03-08T02:06:09;14.43;;;8.10;;
30515;SDS011;17297;54.022;10.760;2024-03-08T02:08:36;13.88;;;7.63;;
30515;SDS011;17297;54.022;10.760;2024-03-08T02:11:02;14.32;;;9.48;;
30515;SDS011;17297;54.022;10.760;2024-03-08T02:13:28;12.73;;;8.63;;
30515;SDS011;17297;54.022;10.760;2024-03-08T02:15:55;14.32;;;9.07;;
30515;SDS011;17297;54.022;10.760;2024-03-08T02:18:22;12.27;;;8.20;;
30515;SDS011;17297;54.022;10.760;2024-03-08T02:23:18;12.30;;;7.47;;
30515;SDS011;17297;54.022;10.760;2024-03-08T02:25:44;13.38;;;7.25;;
30515;SDS011;17297;54.022;10.760;2024-03-08T02:28:10;14.18;;;7.40;;
30515;SDS011;17297;54.022;10.760;2024-03-08T02:30:37;13.48;;;7.93;;
30515;SDS011;17297;54.022;10.760;2024-03-08T02:33:04;18.90;;;9.55;;
30515;SDS011;17297;54.022;10.760;2024-03-08T02:35:29;13.85;;;8.13;;
30515;SDS011;17297;54.022;10.760;2024-03-08T02:37:55;15.95;;;9.40;;
30515;SDS011;17297;54.022;10.760;2024-03-08T02:40:20;15.50;;;9.23;;
30515;SDS011;17297;54.022;10.760;2024-03-08T02:42:47;15.38;;;8.13;;
30515;SDS011;17297;54.022;10.760;2024-03-08T02:45:12;14.48;;;8.98;;
30515;SDS011;17297;54.022;10.760;2024-03-08T02:47:38;14.82;;;8.20;;
30515;SDS011;17297;54.022;10.760;2024-03-08T02:50:04;15.95;;;8.73;;
30515;SDS011;17297;54.022;10.760;2024-03-08T02:52:33;11.80;;;7.35;;
30515;SDS011;17297;54.022;10.760;2024-03-08T02:54:58;16.70;;;9.23;;
30515;SDS011;17297;54.022;10.760;2024-03-08T02:57:24;14.60;;;9.25;;
30515;SDS011;17297;54.022;10.760;2024-03-08T02:59:49;14.63;;;9.30;;
30515;SDS011;17297;54.022;10.760;2024-03-08T03:02:15;13.65;;;8.45;;
30515;SDS011;17297;54.022;10.760;2024-03-08T03:04:41;15.85;;;7.80;;
30515;SDS011;17297;54.022;10.760;2024-03-08T03:07:07;13.85;;;8.40;;
30515;SDS011;17297;54.022;10.760;2024-03-08T03:09:32;11.43;;;7.75;;
30515;SDS011;17297;54.022;10.760;2024-03-08T03:11:58;14.90;;;9.00;;
30515;SDS011;17297;54.022;10.760;2024-03-08T03:14:23;13.63;;;7.90;;
30515;SDS011;17297;54.022;10.760;2024-03-08T03:16:49;14.25;;;8.50;;
30515;SDS011;17297;54.022;10.760;2024-03-08T03:19:15;13.63;;;8.40;;
30515;SDS011;17297;54.022;10.760;2024-03-08T03:21:40;17.48;;;8.20;;
30515;SDS011;17297;54.022;10.760;2024-03-08T03:24:08;14.00;;;8.60;;
30515;SDS011;17297;54.022;10.760;2024-03-08T03:26:38;14.82;;;8.45;;
30515;SDS011;17297;54.022;10.760;2024-03-08T03:29:07;12.68;;;7.93;;
30515;SDS011;17297;54.022;10.760;2024-03-08T03:31:33;13.90;;;8.20;;
30515;SDS011;17297;54.022;10.760;2024-03-08T03:33:59;15.90;;;9.57;;
30515;SDS011;17297;54.022;10.760;2024-03-08T03:36:28;10.88;;;8.13;;
30515;SDS011;17297;54.022;10.760;2024-03-08T03:38:54;14.40;;;8.63;;
30515;SDS011;17297;54.022;10.760;2024-03-08T03:41:30;17.98;;;9.23;;
30515;SDS011;17297;54.022;10.760;2024-03-08T03:43:55;13.18;;;8.65;;
30515;SDS011;17297;54.022;10.760;2024-03-08T03:46:21;16.08;;;9.55;;
30515;SDS011;17297;54.022;10.760;2024-03-08T03:48:46;15.05;;;7.82;;
30515;SDS011;17297;54.022;10.760;2024-03-08T03:51:11;14.95;;;10.13;;
30515;SDS011;17297;54.022;10.760;2024-03-08T03:53:37;16.42;;;9.48;;
30515;SDS011;17297;54.022;10.760;2024-03-08T03:56:02;19.15;;;10.82;;
30515;SDS011;17297;54.022;10.760;2024-03-08T03:58:32;18.52;;;10.23;;
30515;SDS011;17297;54.022;10.760;2024-03-08T04:00:57;17.02;;;9.77;;
30515;SDS011;17297;54.022;10.760;2024-03-08T04:03:23;17.00;;;10.38;;
30515;SDS011;17297;54.022;10.760;2024-03-08T04:05:48;19.48;;;10.68;;
30515;SDS011;17297;54.022;10.760;2024-03-08T04:08:13;18.25;;;10.82;;
30515;SDS011;17297;54.022;10.760;2024-03-08T04:10:39;19.90;;;10.85;;
30515;SDS011;17297;54.022;10.760;2024-03-08T04:13:07;16.55;;;11.10;;
30515;SDS011;17297;54.022;10.760;2024-03-08T04:15:32;16.92;;;10.93;;
30515;SDS011;17297;54.022;10.760;2024-03-08T04:17:57;20.55;;;13.20;;
30515;SDS011;17297;54.022;10.760;2024-03-08T04:20:25;18.35;;;12.60;;
30515;SDS011;17297;54.022;10.760;2024-03-08T04:22:50;18.40;;;10.27;;
30515;SDS011;17297;54.022;10.760;2024-03-08T04:25:16;14.70;;;9.73;;
30515;SDS011;17297;54.022;10.760;2024-03-08T04:27:41;16.17;;;10.20;;
30515;SDS011;17297;54.022;10.760;2024-03-08T04:30:06;17.25;;;9.80;;
30515;SDS011;17297;54.022;10.760;2024-03-08T04:32:32;27.35;;;10.85;;
30515;SDS011;17297;54.022;10.760;2024-03-08T04:34:58;15.45;;;9.13;;
30515;SDS011;17297;54.022;10.760;2024-03-08T04:37:23;21.88;;;11.90;;
30515;SDS011;17297;54.022;10.760;2024-03-08T04:39:48;19.85;;;11.40;;
30515;SDS011;17297;54.022;10.760;2024-03-08T04:42:14;25.33;;;13.52;;
30515;SDS011;17297;54.022;10.760;2024-03-08T04:44:40;22.00;;;13.57;;
30515;SDS011;17297;54.022;10.760;2024-03-08T04:47:05;20.40;;;12.38;;
30515;SDS011;17297;54.022;10.760;2024-03-08T04:49:34;23.10;;;12.20;;
30515;SDS011;17297;54.022;10.760;2024-03-08T04:52:00;19.25;;;12.20;;
30515;SDS011;17297;54.022;10.760;2024-03-08T04:54:29;23.33;;;11.73;;
30515;SDS011;17297;54.022;10.760;2024-03-08T04:56:55;18.40;;;11.25;;
30515;SDS011;17297;54.022;10.760;2024-03-08T04:59:21;20.52;;;12.70;;
30515;SDS011;17297;54.022;10.760;2024-03-08T05:01:46;19.58;;;12.02;;
30515;SDS011;17297;54.022;10.760;2024-03-08T05:04:12;19.35;;;11.93;;
30515;SDS011;17297;54.022;10.760;2024-03-08T05:06:38;26.00;;;14.30;;
30515;SDS011;17297;54.022;10.760;2024-03-08T05:09:03;23.55;;;12.77;;
30515;SDS011;17297;54.022;10.760;2024-03-08T05:11:41;19.67;;;12.05;;
30515;SDS011;17297;54.022;10.760;2024-03-08T05:14:08;19.05;;;11.55;;
30515;SDS011;17297;54.022;10.760;2024-03-08T05:16:34;20.08;;;12.25;;
30515;SDS011;17297;54.022;10.760;2024-03-08T05:18:59;21.50;;;13.02;;
30515;SDS011;17297;54.022;10.760;2024-03-08T05:21:25;21.55;;;13.25;;
30515;SDS011;17297;54.022;10.760;2024-03-08T05:23:50;27.35;;;15.57;;
30515;SDS011;17297;54.022;10.760;2024-03-08T05:26:16;21.85;;;13.65;;
30515;SDS011;17297;54.022;10.760;2024-03-08T05:28:41;26.35;;;13.90;;
30515;SDS011;17297;54.022;10.760;2024-03-08T05:31:07;27.25;;;16.80;;
30515;SDS011;17297;54.022;10.760;2024-03-08T05:33:33;27.95;;;14.85;;
30515;SDS011;17297;54.022;10.760;2024-03-08T05:36:01;30.20;;;16.02;;
30515;SDS011;17297;54.022;10.760;2024-03-08T05:38:27;24.50;;;13.73;;
30515;SDS011;17297;54.022;10.760;2024-03-08T05:40:53;29.73;;;16.88;;
30515;SDS011;17297;54.022;10.760;2024-03-08T05:43:19;30.30;;;15.27;;
30515;SDS011;17297;54.022;10.760;2024-03-08T05:45:45;34.55;;;18.02;;
30515;SDS011;17297;54.022;10.760;2024-03-08T05:48:11;38.88;;;18.02;;
30515;SDS011;17297;54.022;10.760;2024-03-08T05:50:37;33.92;;;17.17;;
30515;SDS011;17297;54.022;10.760;2024-03-08T05:53:03;35.58;;;18.90;;
30515;SDS011;17297;54.022;10.760;2024-03-08T05:55:31;38.53;;;19.05;;
30515;SDS011;17297;54.022;10.760;2024-03-08T05:58:00;45.85;;;22.48;;
30515;SDS011;17297;54.022;10.760;2024-03-08T06:00:26;47.88;;;23.20;;
30515;SDS011;17297;54.022;10.760;2024-03-08T06:02:52;39.38;;;17.85;;
30515;SDS011;17297;54.022;10.760;2024-03-08T06:05:17;41.30;;;21.75;;
30515;SDS011;17297;54.022;10.760;2024-03-08T06:07:43;53.65;;;25.90;;
30515;SDS011;17297;54.022;10.760;2024-03-08T06:10:08;44.75;;;21.45;;
30515;SDS011;17297;54.022;10.760;2024-03-08T06:12:38;43.53;;;22.80;;
30515;SDS011;17297;54.022;10.760;2024-03-08T06:15:09;52.72;;;23.17;;
30515;SDS011;17297;54.022;10.760;2024-03-08T06:17:35;49.95;;;22.55;;
30515;SDS011;17297;54.022;10.760;2024-03-08T06:20:01;57.05;;;27.63;;
30515;SDS011;17297;54.022;10.760;2024-03-08T06:22:26;48.30;;;22.70;;
30515;SDS011;17297;54.022;10.760;2024-03-08T06:24:52;52.00;;;25.17;;
30515;SDS011;17297;54.022;10.760;2024-03-08T06:27:19;65.70;;;28.52;;
30515;SDS011;17297;54.022;10.760;2024-03-08T06:29:44;62.85;;;30.58;;
30515;SDS011;17297;54.022;10.760;2024-03-08T06:32:10;60.58;;;25.58;;
30515;SDS011;17297;54.022;10.760;2024-03-08T06:34:35;52.70;;;23.33;;
30515;SDS011;17297;54.022;10.760;2024-03-08T06:37:01;46.00;;;21.15;;
30515;SDS011;17297;54.022;10.760;2024-03-08T06:39:26;50.70;;;24.70;;
30515;SDS011;17297;54.022;10.760;2024-03-08T06:41:53;48.92;;;23.38;;
30515;SDS011;17297;54.022;10.760;2024-03-08T06:44:19;53.55;;;25.27;;
30515;SDS011;17297;54.022;10.760;2024-03-08T06:46:46;49.97;;;24.65;;
30515;SDS011;17297;54.022;10.760;2024-03-08T06:49:13;48.78;;;22.80;;
30515;SDS011;17297;54.022;10.760;2024-03-08T06:51:38;42.20;;;21.92;;
30515;SDS011;17297;54.022;10.760;2024-03-08T06:54:06;42.90;;;19.85;;
30515;SDS011;17297;54.022;10.760;2024-03-08T06:56:33;41.28;;;22.02;;
30515;SDS011;17297;54.022;10.760;2024-03-08T06:58:59;52.33;;;24.95;;
30515;SDS011;17297;54.022;10.760;2024-03-08T07:01:25;45.22;;;22.15;;
30515;SDS011;17297;54.022;10.760;2024-03-08T07:03:50;50.65;;;23.65;;
30515;SDS011;17297;54.022;10.760;2024-03-08T07:06:17;41.25;;;19.70;;
30515;SDS011;17297;54.022;10.760;2024-03-08T07:08:44;36.35;;;18.88;;
30515;SDS011;17297;54.022;10.760;2024-03-08T07:11:11;45.45;;;20.73;;
30515;SDS011;17297;54.022;10.760;2024-03-08T07:13:37;37.10;;;17.48;;
30515;SDS011;17297;54.022;10.760;2024-03-08T07:16:04;35.38;;;17.60;;
30515;SDS011;17297;54.022;10.760;2024-03-08T07:18:30;43.95;;;19.17;;
30515;SDS011;17297;54.022;10.760;2024-03-08T07:20:55;43.03;;;20.40;;
30515;SDS011;17297;54.022;10.760;2024-03-08T07:23:21;32.28;;;17.33;;
30515;SDS011;17297;54.022;10.760;2024-03-08T07:26:05;37.05;;;17.25;;
30515;SDS011;17297;54.022;10.760;2024-03-08T07:28:30;30.20;;;16.13;;
30515;SDS011;17297;54.022;10.760;2024-03-08T07:30:56;32.55;;;17.83;;
30515;SDS011;17297;54.022;10.760;2024-03-08T07:33:48;36.38;;;17.65;;
30515;SDS011;17297;54.022;10.760;2024-03-08T07:36:15;40.38;;;20.42;;
30515;SDS011;17297;54.022;10.760;2024-03-08T07:38:40;33.50;;;17.98;;
30515;SDS011;17297;54.022;10.760;2024-03-08T07:41:06;34.35;;;17.65;;
30515;SDS011;17297;54.022;10.760;2024-03-08T07:43:31;31.70;;;16.25;;
30515;SDS011;17297;54.022;10.760;2024-03-08T07:45:57;30.13;;;15.75;;
30515;SDS011;17297;54.022;10.760;2024-03-08T07:48:23;28.67;;;14.50;;
30515;SDS011;17297;54.022;10.760;2024-03-08T07:50:48;29.10;;;15.07;;
30515;SDS011;17297;54.022;10.760;2024-03-08T07:53:15;25.23;;;14.70;;
30515;SDS011;17297;54.022;10.760;2024-03-08T07:55:40;28.83;;;15.52;;
30515;SDS011;17297;54.022;10.760;2024-03-08T07:58:07;26.75;;;16.00;;
30515;SDS011;17297;54.022;10.760;2024-03-08T08:00:34;27.70;;;14.18;;
30515;SDS011;17297;54.022;10.760;2024-03-08T08:03:01;29.13;;;14.35;;
30515;SDS011;17297;54.022;10.760;2024-03-08T08:05:26;27.27;;;13.68;;
30515;SDS011;17297;54.022;10.760;2024-03-08T08:07:52;26.17;;;13.85;;
30515;SDS011;17297;54.022;10.760;2024-03-08T08:10:18;25.35;;;14.75;;
30515;SDS011;17297;54.022;10.760;2024-03-08T08:12:47;26.67;;;13.35;;
30515;SDS011;17297;54.022;10.760;2024-03-08T08:15:16;25.13;;;14.57;;
30515;SDS011;17297;54.022;10.760;2024-03-08T08:17:43;24.75;;;12.93;;
30515;SDS011;17297;54.022;10.760;2024-03-08T08:20:09;28.63;;;15.88;;
30515;SDS011;17297;54.022;10.760;2024-03-08T08:22:37;27.75;;;14.75;;
30515;SDS011;17297;54.022;10.760;2024-03-08T08:25:04;28.58;;;15.07;;
30515;SDS011;17297;54.022;10.760;2024-03-08T08:27:29;30.92;;;15.05;;
30515;SDS011;17297;54.022;10.760;2024-03-08T08:29:55;23.50;;;12.88;;
30515;SDS011;17297;54.022;10.760;2024-03-08T08:32:21;24.92;;;13.90;;
30515;SDS011;17297;54.022;10.760;2024-03-08T08:34:46;27.40;;;16.05;;
30515;SDS011;17297;54.022;10.760;2024-03-08T08:37:12;24.50;;;14.13;;
30515;SDS011;17297;54.022;10.760;2024-03-08T08:39:37;30.23;;;16.55;;
30515;SDS011;17297;54.022;10.760;2024-03-08T08:42:03;28.98;;;16.08;;
30515;SDS011;17297;54.022;10.760;2024-03-08T08:44:29;29.23;;;16.15;;
30515;SDS011;17297;54.022;10.760;2024-03-08T08:46:55;29.70;;;14.82;;
30515;SDS011;17297;54.022;10.760;2024-03-08T08:49:21;25.65;;;14.10;;
30515;SDS011;17297;54.022;10.760;2024-03-08T08:51:50;25.55;;;12.68;;
30515;SDS011;17297;54.022;10.760;2024-03-08T08:54:16;29.52;;;16.40;;
30515;SDS011;17297;54.022;10.760;2024-03-08T08:56:44;25.02;;;13.40;;
30515;SDS011;17297;54.022;10.760;2024-03-08T08:59:10;23.27;;;12.35;;
30515;SDS011;17297;54.022;10.760;2024-03-08T09:01:39;23.20;;;13.18;;
30515;SDS011;17297;54.022;10.760;2024-03-08T09:04:04;25.17;;;13.55;;
30515;SDS011;17297;54.022;10.760;2024-03-08T09:06:30;25.10;;;14.50;;
30515;SDS011;17297;54.022;10.760;2024-03-08T09:08:55;23.92;;;13.63;;
30515;SDS011;17297;54.022;10.760;2024-03-08T09:11:21;24.05;;;12.65;;
30515;SDS011;17297;54.022;10.760;2024-03-08T09:13:46;23.20;;;14.57;;
30515;SDS011;17297;54.022;10.760;2024-03-08T09:16:12;25.70;;;13.95;;
30515;SDS011;17297;54.022;10.760;2024-03-08T09:18:37;25.10;;;13.90;;
30515;SDS011;17297;54.022;10.760;2024-03-08T09:21:03;25.67;;;12.27;;
30515;SDS011;17297;54.022;10.760;2024-03-08T09:23:30;31.80;;;17.25;;
30515;SDS011;17297;54.022;10.760;2024-03-08T09:25:56;27.00;;;14.60;;
30515;SDS011;17297;54.022;10.760;2024-03-08T09:28:22;24.75;;;12.60;;
30515;SDS011;17297;54.022;10.760;2024-03-08T09:30:48;29.05;;;15.02;;
30515;SDS011;17297;54.022;10.760;2024-03-08T09:33:14;28.90;;;15.15;;
30515;SDS011;17297;54.022;10.760;2024-03-08T09:35:44;30.52;;;16.17;;
30515;SDS011;17297;54.022;10.760;2024-03-08T09:38:11;27.80;;;14.68;;
30515;SDS011;17297;54.022;10.760;2024-03-08T09:40:38;24.30;;;14.32;;
30515;SDS011;17297;54.022;10.760;2024-03-08T09:43:05;26.23;;;14.80;;
30515;SDS011;17297;54.022;10.760;2024-03-08T09:45:31;26.92;;;16.13;;
30515;SDS011;17297;54.022;10.760;2024-03-08T09:48:01;22.60;;;14.20;;
30515;SDS011;17297;54.022;10.760;2024-03-08T09:50:26;28.38;;;16.33;;
30515;SDS011;17297;54.022;10.760;2024-03-08T09:52:54;30.80;;;15.02;;
30515;SDS011;17297;54.022;10.760;2024-03-08T09:55:22;26.23;;;14.85;;
30515;SDS011;17297;54.022;10.760;2024-03-08T09:57:48;24.77;;;14.75;;
30515;SDS011;17297;54.022;10.760;2024-03-08T10:00:34;21.33;;;14.05;;
30515;SDS011;17297;54.022;10.760;2024-03-08T10:03:00;20.25;;;11.98;;
30515;SDS011;17297;54.022;10.760;2024-03-08T10:05:26;29.40;;;15.68;;
30515;SDS011;17297;54.022;10.760;2024-03-08T10:07:52;26.02;;;14.35;;
30515;SDS011;17297;54.022;10.760;2024-03-08T10:10:18;25.98;;;13.77;;
30515;SDS011;17297;54.022;10.760;2024-03-08T10:12:43;21.85;;;13.52;;
30515;SDS011;17297;54.022;10.760;2024-03-08T10:15:10;24.75;;;15.45;;
30515;SDS011;17297;54.022;10.760;2024-03-08T10:17:37;23.13;;;12.73;;
30515;SDS011;17297;54.022;10.760;2024-03-08T10:20:12;25.38;;;14.55;;
30515;SDS011;17297;54.022;10.760;2024-03-08T10:22:40;29.17;;;14.70;;
30515;SDS011;17297;54.022;10.760;2024-03-08T10:25:08;30.45;;;15.02;;
30515;SDS011;17297;54.022;10.760;2024-03-08T10:27:35;32.03;;;17.80;;
30515;SDS011;17297;54.022;10.760;2024-03-08T10:30:01;30.30;;;15.60;;
30515;SDS011;17297;54.022;10.760;2024-03-08T10:32:26;27.75;;;16.27;;
30515;SDS011;17297;54.022;10.760;2024-03-08T10:34:52;30.85;;;17.52;;
30515;SDS011;17297;54.022;10.760;2024-03-08T10:37:19;28.75;;;15.73;;
30515;SDS011;17297;54.022;10.760;2024-03-08T10:39:50;29.70;;;16.45;;
30515;SDS011;17297;54.022;10.760;2024-03-08T10:42:47;27.63;;;13.80;;
30515;SDS011;17297;54.022;10.760;2024-03-08T10:45:38;28.40;;;15.77;;
30515;SDS011;17297;54.022;10.760;2024-03-08T10:50:56;26.10;;;15.25;;
30515;SDS011;17297;54.022;10.760;2024-03-08T10:53:23;25.17;;;16.58;;
30515;SDS011;17297;54.022;10.760;2024-03-08T10:55:51;25.42;;;14.45;;
30515;SDS011;17297;54.022;10.760;2024-03-08T10:58:22;34.10;;;19.02;;
30515;SDS011;17297;54.022;10.760;2024-03-08T11:00:51;27.25;;;15.75;;
30515;SDS011;17297;54.022;10.760;2024-03-08T11:06:06;25.45;;;15.00;;
30515;SDS011;17297;54.022;10.760;2024-03-08T11:08:38;28.10;;;14.20;;
30515;SDS011;17297;54.022;10.760;2024-03-08T11:11:04;27.55;;;15.90;;
30515;SDS011;17297;54.022;10.760;2024-03-08T11:13:33;25.13;;;14.65;;
30515;SDS011;17297;54.022;10.760;2024-03-08T11:16:12;25.58;;;14.88;;
30515;SDS011;17297;54.022;10.760;2024-03-08T11:18:58;25.65;;;15.48;;
30515;SDS011;17297;54.022;10.760;2024-03-08T11:21:29;25.45;;;16.13;;
30515;SDS011;17297;54.022;10.760;2024-03-08T11:24:05;26.23;;;14.93;;
30515;SDS011;17297;54.022;10.760;2024-03-08T11:26:33;31.48;;;17.83;;
30515;SDS011;17297;54.022;10.760;2024-03-08T11:32:04;24.63;;;15.40;;
30515;SDS011;17297;54.022;10.760;2024-03-08T11:34:37;24.88;;;13.88;;
30515;SDS011;17297;54.022;10.760;2024-03-08T11:37:17;25.25;;;14.75;;
30515;SDS011;17297;54.022;10.760;2024-03-08T11:39:54;29.27;;;16.17;;
30515;SDS011;17297;54.022;10.760;2024-03-08T11:42:24;29.42;;;16.42;;
30515;SDS011;17297;54.022;10.760;2024-03-08T11:44:51;28.67;;;15.45;;
30515;SDS011;17297;54.022;10.760;2024-03-08T11:47:18;31.63;;;16.45;;
30515;SDS011;17297;54.022;10.760;2024-03-08T11:49:44;30.45;;;16.23;;
30515;SDS011;17297;54.022;10.760;2024-03-08T11:52:11;26.73;;;15.63;;
30515;SDS011;17297;54.022;10.760;2024-03-08T11:54:40;29.88;;;16.50;;
30515;SDS011;17297;54.022;10.760;2024-03-08T11:57:19;33.28;;;19.00;;
30515;SDS011;17297;54.022;10.760;2024-03-08T11:59:53;31.23;;;17.08;;
30515;SDS011;17297;54.022;10.760;2024-03-08T12:02:19;34.42;;;18.23;;
30515;SDS011;17297;54.022;10.760;2024-03-08T12:04:44;29.35;;;16.92;;
30515;SDS011;17297;54.022;10.760;2024-03-08T12:07:11;33.95;;;17.25;;
30515;SDS011;17297;54.022;10.760;2024-03-08T12:09:38;36.17;;;19.80;;
30515;SDS011;17297;54.022;10.760;2024-03-08T12:12:03;36.70;;;22.17;;
30515;SDS011;17297;54.022;10.760;2024-03-08T12:14:33;37.63;;;21.58;;
30515;SDS011;17297;54.022;10.760;2024-03-08T12:16:59;37.00;;;21.30;;
30515;SDS011;17297;54.022;10.760;2024-03-08T12:19:26;34.65;;;19.15;;
30515;SDS011;17297;54.022;10.760;2024-03-08T12:21:53;36.42;;;21.13;;
30515;SDS011;17297;54.022;10.760;2024-03-08T12:24:19;37.30;;;20.52;;
30515;SDS011;17297;54.022;10.760;2024-03-08T12:26:46;39.45;;;21.10;;
30515;SDS011;17297;54.022;10.760;2024-03-08T12:29:16;29.85;;;17.02;;
30515;SDS011;17297;54.022;10.760;2024-03-08T12:31:52;35.25;;;20.38;;
30515;SDS011;17297;54.022;10.760;2024-03-08T12:34:19;34.72;;;20.17;;
30515;SDS011;17297;54.022;10.760;2024-03-08T12:36:45;38.35;;;20.38;;
30515;SDS011;17297;54.022;10.760;2024-03-08T12:39:13;35.83;;;19.42;;
30515;SDS011;17297;54.022;10.760;2024-03-08T12:41:41;31.83;;;18.02;;
30515;SDS011;17297;54.022;10.760;2024-03-08T12:44:07;32.38;;;17.33;;
30515;SDS011;17297;54.022;10.760;2024-03-08T12:46:36;35.97;;;18.90;;
30515;SDS011;17297;54.022;10.760;2024-03-08T12:49:08;33.42;;;20.05;;
30515;SDS011;17297;54.022;10.760;2024-03-08T12:51:37;36.60;;;20.23;;
30515;SDS011;17297;54.022;10.760;2024-03-08T12:54:04;29.98;;;18.40;;
30515;SDS011;17297;54.022;10.760;2024-03-08T12:56:33;32.65;;;16.27;;
30515;SDS011;17297;54.022;10.760;2024-03-08T12:59:00;32.08;;;18.20;;
30515;SDS011;17297;54.022;10.760;2024-03-08T13:01:26;35.70;;;20.08;;
30515;SDS011;17297;54.022;10.760;2024-03-08T13:03:54;34.05;;;19.25;;
30515;SDS011;17297;54.022;10.760;2024-03-08T13:06:23;34.30;;;18.17;;
30515;SDS011;17297;54.022;10.760;2024-03-08T13:08:52;34.28;;;19.70;;
30515;SDS011;17297;54.022;10.760;2024-03-08T13:11:18;35.42;;;17.27;;
30515;SDS011;17297;54.022;10.760;2024-03-08T13:13:44;31.83;;;18.45;;
30515;SDS011;17297;54.022;10.760;2024-03-08T13:16:10;36.58;;;19.45;;
30515;SDS011;17297;54.022;10.760;2024-03-08T13:18:37;33.70;;;19.10;;
30515;SDS011;17297;54.022;10.760;2024-03-08T13:21:03;39.15;;;20.48;;
30515;SDS011;17297;54.022;10.760;2024-03-08T13:23:32;36.15;;;19.25;;
30515;SDS011;17297;54.022;10.760;2024-03-08T13:25:58;34.88;;;19.25;;
30515;SDS011;17297;54.022;10.760;2024-03-08T13:28:24;32.50;;;17.25;;
30515;SDS011;17297;54.022;10.760;2024-03-08T13:30:55;37.20;;;18.48;;
30515;SDS011;17297;54.022;10.760;2024-03-08T13:33:23;39.10;;;24.13;;
30515;SDS011;17297;54.022;10.760;2024-03-08T13:35:49;39.13;;;23.08;;
30515;SDS011;17297;54.022;10.760;2024-03-08T13:38:16;45.25;;;24.33;;
30515;SDS011;17297;54.022;10.760;2024-03-08T13:40:45;44.08;;;24.13;;
30515;SDS011;17297;54.022;10.760;2024-03-08T13:43:11;34.88;;;19.55;;
30515;SDS011;17297;54.022;10.760;2024-03-08T13:45:38;39.83;;;18.98;;
30515;SDS011;17297;54.022;10.760;2024-03-08T13:48:07;43.50;;;22.63;;
30515;SDS011;17297;54.022;10.760;2024-03-08T13:50:37;38.05;;;20.67;;
30515;SDS011;17297;54.022;10.760;2024-03-08T13:53:06;43.42;;;23.15;;
30515;SDS011;17297;54.022;10.760;2024-03-08T13:55:32;40.97;;;21.92;;
30515;SDS011;17297;54.022;10.760;2024-03-08T13:57:58;47.33;;;26.33;;
30515;SDS011;17297;54.022;10.760;2024-03-08T14:00:25;46.22;;;23.90;;
30515;SDS011;17297;54.022;10.760;2024-03-08T14:02:56;48.85;;;25.38;;
30515;SDS011;17297;54.022;10.760;2024-03-08T14:05:21;48.20;;;26.65;;
30515;SDS011;17297;54.022;10.760;2024-03-08T14:07:47;50.20;;;26.30;;
30515;SDS011;17297;54.022;10.760;2024-03-08T14:10:14;40.83;;;23.67;;
30515;SDS011;17297;54.022;10.760;2024-03-08T14:12:40;42.60;;;21.40;;
30515;SDS011;17297;54.022;10.760;2024-03-08T14:15:08;45.33;;;24.02;;
30515;SDS011;17297;54.022;10.760;2024-03-08T14:17:33;49.97;;;24.65;;
30515;SDS011;17297;54.022;10.760;2024-03-08T14:19:59;37.63;;;21.35;;
30515;SDS011;17297;54.022;10.760;2024-03-08T14:22:24;42.10;;;23.45;;
30515;SDS011;17297;54.022;10.760;2024-03-08T14:24:53;37.22;;;20.55;;